createdAt,value
2023-01-10T00:00:02.220Z,9.81
2023-01-10T00:02:30.067Z,10.19
2023-01-10T00:04:59.215Z,9.79
2023-01-10T00:07:27.014Z,9.67
2023-01-10T00:09:54.739Z,9.71
2023-01-10T00:12:39.992Z,9.77
2023-01-10T00:15:08.597Z,9.53
2023-01-10T00:17:36.318Z,9.73
2023-01-10T00:20:06.336Z,9.28
2023-01-10T00:22:34.130Z,9.70
2023-01-10T00:25:01.993Z,9.71
2023-01-10T00:27:29.812Z,9.76
2023-01-10T00:30:01.022Z,9.79
2023-01-10T00:32:28.726Z,9.87
2023-01-10T00:34:56.581Z,9.82
2023-01-10T00:37:25.700Z,9.87
2023-01-10T00:39:53.425Z,9.78
2023-01-10T00:42:38.576Z,9.60
2023-01-10T00:45:06.969Z,10.06
2023-01-10T00:47:34.681Z,9.81
2023-01-10T00:50:04.057Z,9.81
2023-01-10T00:52:33.171Z,10.03
2023-01-10T00:55:00.889Z,9.66
2023-01-10T00:57:28.598Z,9.81
2023-01-10T00:59:56.315Z,9.61
2023-01-10T01:02:24.290Z,9.92
2023-01-10T01:04:52.114Z,10.00
2023-01-10T01:07:19.887Z,9.53
2023-01-10T01:10:06.495Z,9.94
2023-01-10T01:12:34.226Z,9.57
2023-01-10T01:15:02.052Z,9.63
2023-01-10T01:17:29.771Z,9.65
2023-01-10T01:19:57.514Z,9.64
2023-01-10T01:22:25.263Z,9.73
2023-01-10T01:24:54.351Z,10.12
2023-01-10T01:27:22.115Z,10.03
2023-01-10T01:29:49.919Z,9.84
2023-01-10T01:32:17.759Z,10.04
2023-01-10T01:34:45.628Z,9.93
2023-01-10T01:37:13.371Z,10.04
2023-01-10T01:39:41.118Z,9.97
2023-01-10T01:42:23.279Z,10.13
2023-01-10T01:45:26.432Z,10.17
2023-01-10T01:47:58.205Z,10.06
2023-01-10T01:50:29.322Z,9.82
2023-01-10T01:53:01.848Z,9.66
2023-01-10T01:55:34.112Z,9.72
2023-01-10T01:58:09.769Z,9.69
2023-01-10T02:00:37.512Z,9.62
2023-01-10T02:03:07.172Z,9.42
2023-01-10T02:05:37.974Z,9.75
2023-01-10T02:08:06.414Z,9.67
2023-01-10T02:10:42.210Z,9.76
2023-01-10T02:13:15.689Z,9.84
2023-01-10T02:15:43.481Z,9.94
2023-01-10T02:18:11.982Z,9.89
2023-01-10T02:20:52.268Z,9.67
2023-01-10T02:23:52.820Z,9.92
2023-01-10T02:26:56.369Z,9.77
2023-01-10T02:30:05.919Z,10.03
2023-01-10T02:32:57.015Z,10.03
2023-01-10T02:35:50.027Z,9.68
2023-01-10T02:38:29.107Z,9.75
2023-01-10T02:41:07.175Z,9.89
2023-01-10T02:43:38.894Z,9.95
2023-01-10T02:46:09.855Z,9.87
2023-01-10T02:48:38.991Z,9.76
2023-01-10T02:51:18.673Z,9.42
2023-01-10T02:53:50.115Z,9.71
2023-01-10T02:56:44.505Z,10.08
2023-01-10T02:59:40.017Z,9.76
2023-01-10T03:02:17.853Z,9.94
2023-01-10T03:04:54.070Z,10.14
2023-01-10T03:07:29.029Z,9.71
2023-01-10T03:10:04.216Z,10.09
2023-01-10T03:12:42.301Z,9.86
2023-01-10T03:15:13.551Z,9.91
2023-01-10T03:17:44.526Z,9.95
2023-01-10T03:20:14.332Z,9.86
2023-01-10T03:22:43.257Z,9.90
2023-01-10T03:25:15.624Z,10.01
2023-01-10T03:27:52.800Z,9.59
2023-01-10T03:30:27.600Z,9.78
2023-01-10T03:32:59.937Z,9.84
2023-01-10T03:35:36.434Z,9.81
2023-01-10T03:38:11.170Z,9.96
2023-01-10T03:40:46.473Z,9.62
2023-01-10T03:43:36.783Z,10.20
2023-01-10T03:46:08.121Z,9.73
2023-01-10T03:48:38.280Z,9.50
2023-01-10T03:51:09.377Z,9.72
2023-01-10T03:53:40.281Z,9.41
2023-01-10T03:56:09.017Z,9.57
2023-01-10T03:58:36.743Z,9.83
2023-01-10T04:01:04.548Z,9.82
2023-01-10T04:03:32.287Z,9.80
2023-01-10T04:06:00.009Z,9.69
2023-01-10T04:08:29.081Z,9.69
2023-01-10T04:10:56.822Z,9.54
2023-01-10T04:13:24.511Z,9.85
2023-01-10T04:15:52.463Z,9.65
2023-01-10T04:18:20.262Z,9.59
2023-01-10T04:20:48.001Z,9.65
2023-01-10T04:23:15.715Z,9.27
2023-01-10T04:25:47.795Z,9.54
2023-01-10T04:28:15.617Z,9.62
2023-01-10T04:30:43.338Z,9.80
2023-01-10T04:33:12.581Z,9.76
2023-01-10T04:35:40.284Z,9.34
2023-01-10T04:38:08.001Z,9.70
2023-01-10T04:40:35.707Z,9.84
2023-01-10T04:43:04.795Z,9.58
2023-01-10T04:45:32.624Z,9.52
2023-01-10T04:48:00.411Z,9.46
2023-01-10T04:50:28.420Z,9.81
2023-01-10T04:52:56.174Z,9.71
2023-01-10T04:55:23.900Z,9.57
2023-01-10T04:57:51.627Z,9.60
2023-01-10T05:00:21.284Z,9.42
2023-01-10T05:02:49.177Z,9.69
2023-01-10T05:05:17.112Z,9.66
2023-01-10T05:07:47.362Z,9.62
2023-01-10T05:10:15.249Z,9.47
2023-01-10T05:12:42.958Z,9.75
2023-01-10T05:15:11.383Z,9.38
2023-01-10T05:17:40.578Z,9.73
2023-01-10T05:20:09.941Z,9.07
2023-01-10T05:22:37.663Z,9.38
2023-01-10T05:25:06.040Z,9.46
2023-01-10T05:27:33.772Z,9.33
2023-01-10T05:30:01.460Z,9.47
2023-01-10T05:32:30.463Z,9.34
2023-01-10T05:34:59.549Z,9.48
2023-01-10T05:37:27.234Z,9.38
2023-01-10T05:39:54.947Z,9.59
2023-01-10T05:42:22.677Z,9.21
2023-01-10T05:44:50.794Z,9.34
2023-01-10T05:47:18.514Z,9.00
2023-01-10T05:49:46.231Z,9.03
2023-01-10T05:52:15.717Z,9.02
2023-01-10T05:54:44.159Z,8.97
2023-01-10T05:57:11.908Z,8.89
2023-01-10T05:59:39.660Z,9.07
2023-01-10T06:02:07.502Z,8.88
2023-01-10T06:04:35.295Z,9.35
2023-01-10T06:07:03.068Z,9.33
2023-01-10T06:09:32.733Z,9.15
2023-01-10T06:12:00.528Z,9.20
2023-01-10T06:14:28.297Z,9.65
2023-01-10T06:16:56.038Z,9.34
2023-01-10T06:19:23.801Z,9.24
2023-01-10T06:21:51.502Z,9.20
2023-01-10T06:24:19.603Z,9.44
2023-01-10T06:26:48.682Z,9.27
2023-01-10T06:29:16.407Z,9.31
2023-01-10T06:31:44.161Z,9.66
2023-01-10T06:34:11.982Z,9.63
2023-01-10T06:36:39.715Z,9.11
2023-01-10T06:39:07.441Z,9.38
2023-01-10T06:41:35.183Z,9.49
2023-01-10T06:44:04.300Z,9.36
2023-01-10T06:46:32.421Z,8.73
2023-01-10T06:49:00.141Z,9.43
2023-01-10T06:51:28.585Z,9.31
2023-01-10T06:53:56.533Z,9.18
2023-01-10T06:56:24.276Z,9.38
2023-01-10T06:58:52.190Z,9.35
2023-01-10T07:01:22.517Z,9.74
2023-01-10T07:03:50.367Z,9.71
2023-01-10T07:06:18.311Z,9.47
2023-01-10T07:08:47.181Z,9.37
2023-01-10T07:11:16.746Z,9.47
2023-01-10T07:13:44.540Z,9.49
2023-01-10T07:16:14.398Z,9.75
2023-01-10T07:18:44.428Z,9.39
2023-01-10T07:21:12.909Z,9.36
2023-01-10T07:23:40.728Z,9.35
2023-01-10T07:26:11.500Z,9.58
2023-01-10T07:28:39.268Z,9.67
2023-01-10T07:31:07.534Z,9.63
2023-01-10T07:33:35.288Z,9.31
2023-01-10T07:36:04.747Z,9.60
2023-01-10T07:38:32.501Z,9.38
2023-01-10T07:41:02.683Z,9.22
2023-01-10T07:43:30.701Z,9.26
2023-01-10T07:46:00.057Z,9.44
2023-01-10T07:48:28.213Z,9.72
2023-01-10T07:50:57.229Z,9.55
2023-01-10T07:53:27.208Z,9.21
2023-01-10T07:55:55.589Z,9.40
2023-01-10T07:58:23.291Z,9.31
2023-01-10T08:00:51.143Z,9.52
2023-01-10T08:03:19.182Z,9.51
2023-01-10T08:05:46.983Z,9.24
2023-01-10T08:08:16.777Z,9.22
2023-01-10T08:10:45.903Z,9.61
2023-01-10T08:13:18.790Z,9.40
2023-01-10T08:15:50.358Z,9.25
2023-01-10T08:18:18.362Z,9.27
2023-01-10T08:20:47.213Z,9.55
2023-01-10T08:23:15.263Z,9.33
2023-01-10T08:25:43.034Z,9.40
2023-01-10T08:28:12.151Z,9.59
2023-01-10T08:30:40.250Z,9.52
2023-01-10T08:33:09.027Z,9.24
2023-01-10T08:35:40.228Z,9.93
2023-01-10T08:38:08.354Z,9.60
2023-01-10T08:40:36.177Z,9.34
2023-01-10T08:43:06.511Z,9.67
2023-01-10T08:45:37.396Z,9.53
2023-01-10T08:48:06.122Z,9.47
2023-01-10T08:50:34.194Z,9.87
2023-01-10T08:53:02.557Z,9.37
2023-01-10T08:55:32.113Z,9.70
2023-01-10T08:58:00.880Z,9.51
2023-01-10T09:00:28.885Z,10.05
2023-01-10T09:02:58.259Z,10.23
2023-01-10T09:05:28.421Z,10.02
2023-01-10T09:08:00.071Z,10.12
2023-01-10T09:10:28.599Z,9.89
2023-01-10T09:12:56.325Z,9.72
2023-01-10T09:15:25.909Z,9.87
2023-01-10T09:17:55.354Z,9.35
2023-01-10T09:20:26.020Z,9.89
2023-01-10T09:22:54.023Z,10.16
2023-01-10T09:25:22.321Z,10.50
2023-01-10T09:27:57.517Z,10.06
2023-01-10T09:30:25.551Z,10.58
2023-01-10T09:32:53.811Z,10.34
2023-01-10T09:35:21.898Z,10.37
2023-01-10T09:37:51.476Z,9.92
2023-01-10T09:40:25.429Z,10.11
2023-01-10T09:43:06.946Z,10.31
2023-01-10T09:45:43.469Z,10.20
2023-01-10T09:48:19.386Z,10.41
2023-01-10T09:51:00.306Z,10.73
2023-01-10T09:53:34.457Z,10.31
2023-01-10T09:56:04.177Z,10.50
2023-01-10T09:58:35.394Z,10.11
2023-01-10T10:01:07.312Z,10.53
2023-01-10T10:03:43.180Z,10.24
2023-01-10T10:06:13.656Z,10.31
2023-01-10T10:08:44.603Z,10.23
2023-01-10T10:11:32.197Z,10.67
2023-01-10T10:14:08.329Z,9.83
2023-01-10T10:16:47.489Z,10.51
2023-01-10T10:19:23.118Z,11.14
2023-01-10T10:21:59.828Z,11.50
2023-01-10T10:24:45.836Z,11.72
2023-01-10T10:27:22.717Z,11.93
2023-01-10T10:30:20.168Z,12.49
2023-01-10T10:32:59.286Z,11.80
2023-01-10T10:35:30.777Z,13.11
2023-01-10T10:38:03.187Z,12.93
2023-01-10T10:40:37.472Z,13.70
2023-01-10T10:43:15.644Z,13.19
2023-01-10T10:45:47.217Z,13.58
2023-01-10T10:48:19.103Z,14.65
2023-01-10T10:50:57.810Z,14.31
2023-01-10T10:53:25.665Z,12.79
2023-01-10T10:55:55.227Z,13.80
2023-01-10T10:58:23.045Z,14.26
2023-01-10T11:00:51.082Z,13.01
2023-01-10T11:03:28.281Z,13.03
2023-01-10T11:05:57.101Z,12.74
2023-01-10T11:08:25.407Z,13.46
2023-01-10T11:10:56.677Z,13.13
2023-01-10T11:13:36.593Z,14.43
2023-01-10T11:16:07.022Z,14.17
2023-01-10T11:18:35.090Z,12.82
2023-01-10T11:21:06.804Z,12.33
2023-01-10T11:23:41.858Z,12.89
2023-01-10T11:26:23.323Z,12.78
2023-01-10T11:28:53.553Z,12.77
2023-01-10T11:31:29.232Z,12.32
2023-01-10T11:33:58.502Z,11.51
2023-01-10T11:36:26.260Z,12.55
2023-01-10T11:39:03.763Z,11.89
2023-01-10T11:41:34.407Z,11.56
2023-01-10T11:44:18.538Z,11.78
2023-01-10T11:46:47.474Z,10.53
2023-01-10T11:49:20.444Z,10.19
2023-01-10T11:51:50.890Z,10.36
2023-01-10T11:54:22.391Z,10.30
2023-01-10T11:56:58.249Z,10.19
2023-01-10T11:59:27.551Z,10.42
2023-01-10T12:02:00.338Z,10.26
2023-01-10T12:04:30.720Z,10.29
2023-01-10T12:07:02.811Z,10.09
2023-01-10T12:09:42.414Z,10.46
2023-01-10T12:12:23.078Z,10.21
2023-01-10T12:14:51.690Z,9.77
2023-01-10T12:17:24.585Z,9.81
2023-01-10T12:19:53.645Z,9.47
2023-01-10T12:22:27.252Z,9.57
2023-01-10T12:24:56.428Z,9.41
2023-01-10T12:27:29.342Z,9.51
2023-01-10T12:30:04.543Z,9.30
2023-01-10T12:32:37.665Z,9.36
2023-01-10T12:35:11.853Z,9.46
2023-01-10T12:37:46.469Z,9.28
2023-01-10T12:40:21.070Z,9.49
2023-01-10T12:43:13.474Z,9.80
2023-01-10T12:45:46.859Z,9.79
2023-01-10T12:48:23.005Z,9.78
2023-01-10T12:50:58.700Z,9.73
2023-01-10T12:53:32.296Z,9.24
2023-01-10T12:56:04.846Z,9.52
2023-01-10T12:58:40.284Z,9.31
2023-01-10T13:01:09.698Z,9.73
2023-01-10T13:03:38.092Z,9.49
2023-01-10T13:06:06.157Z,9.73
2023-01-10T13:08:35.669Z,9.15
2023-01-10T13:11:04.483Z,10.01
2023-01-10T13:13:37.070Z,10.03
2023-01-10T13:16:21.073Z,9.96
2023-01-10T13:19:06.460Z,9.61
2023-01-10T13:21:35.720Z,9.58
2023-01-10T13:24:05.529Z,9.90
2023-01-10T13:26:49.461Z,9.86
2023-01-10T13:29:21.892Z,10.31
2023-01-10T13:31:57.023Z,10.13
2023-01-10T13:34:27.997Z,9.98
2023-01-10T13:36:58.896Z,9.44
2023-01-10T13:39:32.004Z,9.58
2023-01-10T13:42:44.275Z,9.90
2023-01-10T13:45:28.396Z,9.94
2023-01-10T13:48:17.948Z,9.73
2023-01-10T13:50:58.372Z,9.82
2023-01-10T13:53:46.851Z,9.84
2023-01-10T13:56:39.429Z,9.85
2023-01-10T13:59:31.369Z,9.93
2023-01-10T14:02:19.912Z,10.17
2023-01-10T14:04:51.976Z,9.86
2023-01-10T14:07:25.099Z,10.06
2023-01-10T14:09:54.156Z,9.79
2023-01-10T14:12:35.674Z,10.06
2023-01-10T14:15:08.273Z,9.85
2023-01-10T14:17:39.064Z,10.00
2023-01-10T14:20:17.662Z,9.53
2023-01-10T14:22:59.093Z,10.11
2023-01-10T14:25:27.775Z,10.21
2023-01-10T14:27:57.284Z,10.18
2023-01-10T14:30:28.700Z,10.13
2023-01-10T14:33:02.433Z,10.06
2023-01-10T14:35:37.140Z,10.14
2023-01-10T14:38:06.413Z,10.31
2023-01-10T14:40:40.966Z,9.90
2023-01-10T14:43:13.096Z,9.96
2023-01-10T14:45:49.054Z,10.13
2023-01-10T14:48:41.617Z,9.82
2023-01-10T14:51:21.038Z,10.09
2023-01-10T14:53:55.788Z,10.04
2023-01-10T14:56:25.845Z,9.90
2023-01-10T14:58:53.752Z,9.66
2023-01-10T15:01:25.665Z,10.08
2023-01-10T15:03:56.931Z,10.15
2023-01-10T15:06:25.972Z,9.78
2023-01-10T15:08:58.418Z,9.77
2023-01-10T15:11:27.785Z,9.48
2023-01-10T15:14:00.468Z,9.88
2023-01-10T15:16:29.847Z,9.81
2023-01-10T15:18:59.037Z,9.51
2023-01-10T15:21:26.960Z,9.68
2023-01-10T15:23:54.694Z,9.68
2023-01-10T15:26:28.519Z,9.13
2023-01-10T15:29:14.006Z,9.39
2023-01-10T15:31:44.434Z,9.86
2023-01-10T15:34:19.165Z,10.07
2023-01-10T15:36:50.520Z,9.23
2023-01-10T15:39:24.107Z,9.41
2023-01-10T15:41:57.899Z,9.45
2023-01-10T15:44:36.350Z,9.14
2023-01-10T15:47:04.453Z,9.13
2023-01-10T15:49:33.949Z,9.38
2023-01-10T15:52:01.705Z,9.61
2023-01-10T15:54:32.096Z,9.41
2023-01-10T15:57:07.534Z,9.45
2023-01-10T15:59:39.331Z,9.75
2023-01-10T16:02:22.615Z,9.49
2023-01-10T16:04:55.345Z,9.24
2023-01-10T16:07:27.572Z,9.41
2023-01-10T16:09:59.382Z,9.09
2023-01-10T16:12:52.953Z,8.96
2023-01-10T16:15:23.254Z,9.44
2023-01-10T16:17:51.332Z,9.34
2023-01-10T16:20:22.611Z,9.60
2023-01-10T16:22:53.382Z,9.59
2023-01-10T16:25:28.348Z,9.46
2023-01-10T16:27:56.385Z,9.48
2023-01-10T16:30:26.477Z,9.26
2023-01-10T16:32:57.190Z,8.99
2023-01-10T16:35:26.959Z,9.23
2023-01-10T16:37:57.155Z,9.03
2023-01-10T16:40:28.435Z,9.23
2023-01-10T16:43:14.058Z,8.97
2023-01-10T16:45:42.015Z,8.90
2023-01-10T16:48:10.202Z,9.11
2023-01-10T16:50:39.435Z,8.94
2023-01-10T16:53:07.245Z,9.01
2023-01-10T16:55:40.891Z,8.92
2023-01-10T16:58:09.289Z,8.88
2023-01-10T17:00:37.486Z,9.24
2023-01-10T17:03:10.156Z,8.95
2023-01-10T17:05:40.164Z,9.41
2023-01-10T17:08:15.065Z,9.08
2023-01-10T17:10:42.951Z,9.10
2023-01-10T17:13:12.041Z,9.29
2023-01-10T17:15:39.827Z,8.82
2023-01-10T17:18:08.033Z,8.77
2023-01-10T17:20:35.800Z,8.65
2023-01-10T17:23:04.842Z,9.10
2023-01-10T17:25:32.591Z,8.72
2023-01-10T17:28:00.318Z,8.90
2023-01-10T17:30:28.076Z,9.10
2023-01-10T17:32:55.830Z,9.09
2023-01-10T17:35:27.461Z,8.68
2023-01-10T17:37:56.741Z,9.05
2023-01-10T17:40:26.007Z,9.34
2023-01-10T17:42:53.821Z,8.75
2023-01-10T17:45:21.586Z,8.93
2023-01-10T17:47:50.690Z,8.74
2023-01-10T17:50:18.655Z,8.88
2023-01-10T17:52:46.361Z,9.11
2023-01-10T17:55:14.102Z,9.00
2023-01-10T17:57:43.313Z,9.09
2023-01-10T18:00:12.249Z,9.41
2023-01-10T18:02:40.056Z,9.17
2023-01-10T18:05:08.550Z,9.04
2023-01-10T18:07:36.318Z,9.08
2023-01-10T18:10:04.441Z,9.13
2023-01-10T18:12:32.157Z,9.32
2023-01-10T18:15:01.250Z,8.94
2023-01-10T18:17:29.025Z,8.98
2023-01-10T18:19:56.951Z,9.05
2023-01-10T18:22:42.132Z,8.93
2023-01-10T18:25:10.174Z,9.22
2023-01-10T18:27:37.893Z,8.74
2023-01-10T18:30:08.193Z,9.01
2023-01-10T18:32:36.038Z,8.94
2023-01-10T18:35:03.842Z,9.00
2023-01-10T18:37:31.578Z,9.07
2023-01-10T18:39:59.357Z,8.86
2023-01-10T18:42:27.070Z,8.85
2023-01-10T18:44:54.786Z,8.25
2023-01-10T18:47:23.889Z,9.06
2023-01-10T18:49:51.595Z,8.49
2023-01-10T18:52:21.053Z,8.83
2023-01-10T18:54:48.802Z,8.89
2023-01-10T18:57:16.531Z,8.62
2023-01-10T18:59:44.281Z,8.45
2023-01-10T19:02:16.904Z,8.56
2023-01-10T19:04:46.077Z,8.42
2023-01-10T19:07:13.811Z,8.49
2023-01-10T19:09:41.639Z,8.73
2023-01-10T19:12:09.405Z,8.80
2023-01-10T19:14:37.169Z,9.03
2023-01-10T19:17:04.908Z,8.39
2023-01-10T19:19:32.621Z,8.03
2023-01-10T19:22:01.732Z,8.67
2023-01-10T19:24:32.736Z,8.44
2023-01-10T19:27:00.483Z,8.79
2023-01-10T19:29:30.362Z,8.63
2023-01-10T19:31:58.691Z,8.79
2023-01-10T19:34:26.443Z,8.50
2023-01-10T19:36:54.186Z,8.28
2023-01-10T19:39:23.296Z,8.44
2023-01-10T19:41:51.047Z,7.99
2023-01-10T19:44:18.745Z,8.31
2023-01-10T19:46:47.605Z,8.19
2023-01-10T19:49:17.702Z,8.42
2023-01-10T19:51:49.255Z,8.12
2023-01-10T19:54:16.963Z,8.13
2023-01-10T19:56:46.273Z,8.50
2023-01-10T19:59:14.868Z,8.32
2023-01-10T20:01:42.740Z,8.56
2023-01-10T20:04:11.006Z,8.01
2023-01-10T20:06:40.951Z,8.21
2023-01-10T20:09:11.376Z,7.97
2023-01-10T20:11:40.515Z,8.35
2023-01-10T20:14:13.380Z,8.31
2023-01-10T20:16:41.654Z,8.28
2023-01-10T20:19:10.544Z,7.61
2023-01-10T20:21:39.485Z,8.29
2023-01-10T20:24:11.873Z,7.94
2023-01-10T20:26:39.834Z,7.83
2023-01-10T20:29:08.997Z,7.91
2023-01-10T20:31:36.821Z,8.37
2023-01-10T20:34:04.700Z,8.49
2023-01-10T20:36:33.431Z,7.73
2023-01-10T20:39:01.270Z,8.15
2023-01-10T20:41:30.623Z,7.67
2023-01-10T20:43:59.109Z,8.06
2023-01-10T20:46:30.736Z,8.02
2023-01-10T20:49:02.261Z,8.00
2023-01-10T20:51:32.810Z,7.92
2023-01-10T20:54:01.096Z,7.67
2023-01-10T20:56:31.376Z,7.65
2023-01-10T20:58:59.882Z,7.82
2023-01-10T21:01:35.182Z,8.30
2023-01-10T21:04:04.790Z,8.31
2023-01-10T21:06:33.060Z,7.64
2023-01-10T21:09:01.128Z,7.88
2023-01-10T21:11:28.898Z,7.70
2023-01-10T21:13:56.718Z,8.12
2023-01-10T21:16:25.532Z,8.06
2023-01-10T21:18:54.827Z,7.61
2023-01-10T21:21:23.550Z,8.08
2023-01-10T21:23:51.443Z,7.87
2023-01-10T21:26:19.462Z,7.83
2023-01-10T21:28:47.864Z,8.15
2023-01-10T21:31:17.684Z,7.91
2023-01-10T21:33:45.589Z,7.93
2023-01-10T21:36:14.848Z,7.83
2023-01-10T21:38:43.925Z,8.01
2023-01-10T21:41:14.607Z,7.92
2023-01-10T21:43:44.546Z,8.15
2023-01-10T21:46:12.985Z,7.86
2023-01-10T21:48:40.979Z,7.59
2023-01-10T21:51:08.715Z,7.67
2023-01-10T21:53:41.306Z,7.73
2023-01-10T21:56:09.460Z,7.65
2023-01-10T21:58:37.198Z,7.83
2023-01-10T22:01:05.057Z,8.15
2023-01-10T22:03:32.881Z,8.14
2023-01-10T22:06:02.518Z,7.85
2023-01-10T22:08:30.293Z,8.42
2023-01-10T22:10:59.381Z,8.25
2023-01-10T22:13:27.336Z,8.11
2023-01-10T22:15:59.031Z,8.13
2023-01-10T22:18:26.842Z,7.91
2023-01-10T22:20:55.705Z,8.07
2023-01-10T22:23:24.389Z,7.98
2023-01-10T22:26:04.584Z,8.15
2023-01-10T22:28:32.981Z,8.19
2023-01-10T22:31:01.253Z,7.70
2023-01-10T22:33:29.833Z,7.82
2023-01-10T22:35:58.283Z,8.59
2023-01-10T22:38:26.009Z,7.89
2023-01-10T22:40:53.754Z,8.07
2023-01-10T22:43:22.829Z,8.03
2023-01-10T22:45:50.555Z,8.29
2023-01-10T22:48:18.321Z,7.91
2023-01-10T22:50:49.719Z,8.14
2023-01-10T22:53:17.439Z,8.08
2023-01-10T22:55:45.190Z,8.20
2023-01-10T22:58:12.953Z,8.09
2023-01-10T23:00:42.089Z,8.15
2023-01-10T23:03:09.810Z,7.93
2023-01-10T23:05:37.584Z,8.10
2023-01-10T23:08:05.658Z,8.30
2023-01-10T23:10:33.473Z,8.18
2023-01-10T23:13:02.097Z,8.60
2023-01-10T23:15:30.696Z,8.21
2023-01-10T23:17:59.959Z,8.34
2023-01-10T23:20:27.762Z,8.07
2023-01-10T23:22:55.469Z,8.10
2023-01-10T23:25:23.221Z,8.30
2023-01-10T23:27:51.366Z,8.30
2023-01-10T23:30:19.360Z,8.22
2023-01-10T23:32:47.061Z,8.15
2023-01-10T23:35:16.258Z,8.12
2023-01-10T23:37:44.041Z,8.13
2023-01-10T23:40:13.034Z,7.71
2023-01-10T23:42:40.797Z,7.77
2023-01-10T23:45:09.837Z,7.72
2023-01-10T23:47:37.569Z,7.53
2023-01-10T23:50:06.319Z,7.89
2023-01-10T23:52:35.415Z,7.72
2023-01-10T23:55:03.149Z,7.35
2023-01-10T23:57:30.850Z,7.43
2023-01-10T23:59:59.873Z,7.72
